Time;durP1;ratioP1;P1;durP2;ratioP2;P2;SDS_P1;SDS_P2;PMS_P1;PMS_P2;Temp;Humidity;BMP_temperature;BMP_pressure;BME280_temperature;BME280_humidity;BME280_pressure;Samples;Min_cycle;Max_cycle;Signal;HPM_P1;HPM_P2
2023/08/17 00:02:49;;;;;;;;;;;;;;;;;;6191149;28;19991;-69
2023/08/17 00:05:49;;;;;;;;;;;;;;;;;;6192802;28;19910;-69
2023/08/17 00:08:49;;;;;;;;;;;;;;;;;;6192436;28;20360;-69
2023/08/17 00:11:49;;;;;;;;;;;;;;;;;;6193747;28;20024;-69
2023/08/17 00:14:49;;;;;;;;;;;;;;;;;;6192945;28;19965;-69
2023/08/17 00:17:50;;;;;;;;;;;;;;;;;;6189494;28;19910;-69
2023/08/17 00:20:50;;;;;;;;;;;;;;;;;;6194045;28;19914;-68
2023/08/17 00:23:50;;;;;;;;;;;;;;;;;;6192627;28;19964;-68
2023/08/17 00:26:50;;;;;;;;;;;;;;;;;;6193037;28;19952;-68
2023/08/17 00:29:50;;;;;;;;;;;;;;;;;;6191532;28;19924;-69
2023/08/17 00:32:50;;;;;;;;;;;;;;;;;;6175156;28;20362;-68
2023/08/17 00:35:50;;;;;;;;;;;;;;;;;;6190035;28;19910;-68
2023/08/17 00:38:50;;;;;;;;;;;;;;;;;;6192688;28;19952;-68
2023/08/17 00:41:51;;;;;;;;;;;;;;;;;;6191660;28;19910;-68
2023/08/17 00:44:51;;;;;;;;;;;;;;;;;;6193027;28;20450;-68
2023/08/17 00:47:51;;;;;;;;;;;;;;;;;;6196091;28;19910;-69
2023/08/17 00:50:51;;;;;;;;;;;;;;;;;;6191713;28;19996;-69
2023/08/17 00:53:51;;;;;;;;;;;;;;;;;;6191552;28;19917;-69
2023/08/17 00:56:51;;;;;;;;;;;;;;;;;;6193437;28;20007;-69
2023/08/17 00:59:51;;;;;;;;;;;;;;;;;;6192444;28;20012;-68
2023/08/17 01:02:52;;;;;;;;;;;;;;;;;;6190674;28;19917;-68
2023/08/17 01:05:52;;;;;;;;;;;;;;;;;;6193160;28;20383;-68
2023/08/17 01:08:52;;;;;;;;;;;;;;;;;;6187775;28;19910;-68
2023/08/17 01:11:52;;;;;;;;;;;;;;;;;;6189534;28;20364;-68
2023/08/17 01:14:52;;;;;;;;;;;;;;;;;;6191889;28;20008;-69
2023/08/17 01:17:52;;;;;;;;;;;;;;;;;;6191633;28;19914;-72
2023/08/17 01:20:52;;;;;;;;;;;;;;;;;;6192506;28;19982;-69
2023/08/17 01:23:52;;;;;;;;;;;;;;;;;;6191373;28;20056;-69
2023/08/17 01:26:53;;;;;;;;;;;;;;;;;;6191216;28;19910;-69
2023/08/17 01:29:53;;;;;;;;;;;;;;;;;;6192073;28;19953;-69
2023/08/17 01:32:53;;;;;;;;;;;;;;;;;;6191563;28;20009;-68
2023/08/17 01:35:53;;;;;;;;;;;;;;;;;;6191776;28;19918;-69
2023/08/17 01:38:55;;;;;;;;;;;;;;;;;;6189354;28;19918;-69
2023/08/17 01:41:55;;;;;;;;;;;;;;;;;;6189872;28;20004;-69
2023/08/17 01:44:55;;;;;;;;;;;;;;;;;;6191004;28;19916;-68
2023/08/17 01:47:55;;;;;;;;;;;;;;;;;;6188474;28;19913;-68
2023/08/17 01:50:55;;;;;;;;;;;;;;;;;;6192630;28;19917;-69
2023/08/17 01:53:56;;;;;;;;;;;;;;;;;;6191963;28;19920;-69
2023/08/17 01:56:56;;;;;;;;;;;;;;;;;;6190339;28;20040;-68
2023/08/17 01:59:56;;;;;;;;;;;;;;;;;;6182937;28;20019;-73
2023/08/17 02:02:56;;;;;;;;;;;;;;;;;;6181119;28;19910;-68
2023/08/17 02:05:56;;;;;;;;;;;;;;;;;;6185170;28;19917;-68
2023/08/17 02:08:56;;;;;;;;;;;;;;;;;;6189505;28;20327;-69
2023/08/17 02:11:56;;;;;;;;;;;;;;;;;;6181191;28;20415;-69
2023/08/17 02:14:57;;;;;;;;;;;;;;;;;;6184076;28;19931;-69
2023/08/17 02:17:57;;;;;;;;;;;;;;;;;;6179214;28;19921;-69
2023/08/17 02:20:57;;;;;;;;;;;;;;;;;;6183532;28;20423;-69
2023/08/17 02:23:57;;;;;;;;;;;;;;;;;;6188005;28;19931;-69
2023/08/17 02:26:57;;;;;;;;;;;;;;;;;;6180745;28;20036;-68
2023/08/17 02:29:57;;;;;;;;;;;;;;;;;;6182760;28;20296;-68
2023/08/17 02:32:58;;;;;;;;;;;;;;;;;;6183574;28;19932;-68
2023/08/17 02:35:58;;;;;;;;;;;;;;;;;;6181848;28;19928;-69
2023/08/17 02:38:58;;;;;;;;;;;;;;;;;;6184901;28;19928;-69
2023/08/17 02:41:58;;;;;;;;;;;;;;;;;;6184244;28;19910;-74
2023/08/17 02:44:58;;;;;;;;;;;;;;;;;;6182769;28;20410;-68
2023/08/17 02:47:58;;;;;;;;;;;;;;;;;;6182453;28;20777;-68
2023/08/17 02:50:58;;;;;;;;;;;;;;;;;;6189040;28;19964;-69
2023/08/17 02:53:59;;;;;;;;;;;;;;;;;;6183999;28;19917;-69
2023/08/17 02:56:59;;;;;;;;;;;;;;;;;;6181077;28;19956;-69
2023/08/17 02:59:59;;;;;;;;;;;;;;;;;;6181958;28;19980;-68
2023/08/17 03:02:59;;;;;;;;;;;;;;;;;;6184344;28;19997;-69
2023/08/17 03:05:59;;;;;;;;;;;;;;;;;;6188491;28;20011;-68
2023/08/17 03:08:59;;;;;;;;;;;;;;;;;;6181937;28;19914;-68
2023/08/17 03:12:00;;;;;;;;;;;;;;;;;;6181857;28;19940;-67
2023/08/17 03:15:00;;;;;;;;;;;;;;;;;;6180983;28;20012;-67
2023/08/17 03:18:00;;;;;;;;;;;;;;;;;;6182005;28;20794;-69
2023/08/17 03:21:00;;;;;;;;;;;;;;;;;;6185494;28;19924;-68
2023/08/17 03:24:00;;;;;;;;;;;;;;;;;;6179889;28;19920;-69
2023/08/17 03:27:00;;;;;;;;;;;;;;;;;;6183572;28;19920;-70
2023/08/17 03:30:00;;;;;;;;;;;;;;;;;;6185487;28;20387;-68
2023/08/17 03:33:01;;;;;;;;;;;;;;;;;;6185233;28;20329;-68
2023/08/17 03:36:01;;;;;;;;;;;;;;;;;;6183994;28;20244;-68
2023/08/17 03:39:01;;;;;;;;;;;;;;;;;;6182551;28;20009;-69
2023/08/17 03:42:01;;;;;;;;;;;;;;;;;;6184546;28;19914;-69
2023/08/17 03:45:01;;;;;;;;;;;;;;;;;;6184609;28;20245;-68
2023/08/17 03:48:01;;;;;;;;;;;;;;;;;;6183679;28;19910;-68
2023/08/17 03:51:02;;;;;;;;;;;;;;;;;;6183490;28;19972;-68
2023/08/17 03:54:02;;;;;;;;;;;;;;;;;;6181251;28;19913;-68
2023/08/17 03:57:02;;;;;;;;;;;;;;;;;;6182240;28;19971;-70
2023/08/17 04:00:03;;;;;;;;;;;;;;;;;;6118844;28;1866004;-69
2023/08/17 04:03:04;;;;;;;;;;;;;;;;;;6187567;28;19914;-69
2023/08/17 04:06:04;;;;;;;;;;;;;;;;;;6192266;28;19945;-68
2023/08/17 04:09:04;;;;;;;;;;;;;;;;;;6175318;28;19939;-68
2023/08/17 04:12:05;;;;;;;;;;;;;;;;;;6180641;28;20387;-69
2023/08/17 04:15:05;;;;;;;;;;;;;;;;;;6166672;28;19922;-67
2023/08/17 04:18:06;;;;;;;;;;;;;;;;;;6181781;28;20023;-67
2023/08/17 04:21:06;;;;;;;;;;;;;;;;;;6182919;28;20406;-68
2023/08/17 04:24:06;;;;;;;;;;;;;;;;;;6181782;28;19914;-67
2023/08/17 04:27:06;;;;;;;;;;;;;;;;;;6181590;28;19928;-67
2023/08/17 04:30:06;;;;;;;;;;;;;;;;;;6191944;28;19969;-66
2023/08/17 04:33:07;;;;;;;;;;;;;;;;;;6187722;28;19914;-68
2023/08/17 04:36:07;;;;;;;;;;;;;;;;;;6189938;28;20360;-68
2023/08/17 04:39:09;;;;;;;;;;;;;;;;;;6190040;28;19913;-72
2023/08/17 04:42:09;;;;;;;;;;;;;;;;;;6184131;28;19941;-68
2023/08/17 04:45:09;;;;;;;;;;;;;;;;;;6186392;28;20008;-67
2023/08/17 04:48:09;;;;;;;;;;;;;;;;;;6191537;28;19910;-65
2023/08/17 04:51:09;;;;;;;;;;;;;;;;;;6200903;28;19965;-67
2023/08/17 04:54:09;;;;;;;;;;;;;;;;;;6195184;28;20497;-67
2023/08/17 04:57:10;;;;;;;;;;;;;;;;;;6187718;28;19914;-73
2023/08/17 05:00:10;;;;;;;;;;;;;;;;;;6184816;28;19957;-68
2023/08/17 05:03:10;;;;;;;;;;;;;;;;;;6184862;28;19910;-68
2023/08/17 05:06:11;;;;;;;;;;;;;;;;;;6188355;28;19941;-69
2023/08/17 05:09:11;;;;;;;;;;;;;;;;;;6184957;28;19910;-66
2023/08/17 05:12:13;;;;;;;;;;;;;;;;;;6184243;28;19914;-67
2023/08/17 05:15:13;;;;;;;;;;;;;;;;;;6181269;28;19921;-67
2023/08/17 05:18:13;;;;;;;;;;;;;;;;;;6218645;28;19913;-67
2023/08/17 05:21:13;;;;;;;;;;;;;;;;;;6203224;28;19932;-72
2023/08/17 05:24:13;;;;;;;;;;;;;;;;;;6197601;28;20395;-68
2023/08/17 05:27:13;;;;;;;;;;;;;;;;;;6198885;28;20048;-68
2023/08/17 05:30:14;;;;;;;;;;;;;;;;;;6195485;28;19925;-69
2023/08/17 05:33:14;;;;;;;;;;;;;;;;;;6190792;28;19992;-67
2023/08/17 05:36:14;;;;;;;;;;;;;;;;;;6197904;28;19945;-71
2023/08/17 05:39:14;;;;;;;;;;;;;;;;;;6192140;28;19909;-74
2023/08/17 05:42:14;;;;;;;;;;;;;;;;;;6184668;28;19960;-66
2023/08/17 05:45:14;;;;;;;;;;;;;;;;;;6196773;28;19909;-84
2023/08/17 05:48:14;;;;;;;;;;;;;;;;;;6184449;28;19937;-71
2023/08/17 05:51:15;;;;;;;;;;;;;;;;;;6186071;28;19963;-70
2023/08/17 05:54:15;;;;;;;;;;;;;;;;;;6215497;28;19956;-73
2023/08/17 05:57:15;;;;;;;;;;;;;;;;;;6204343;28;20248;-71
2023/08/17 06:00:15;;;;;;;;;;;;;;;;;;6198257;28;19921;-72
2023/08/17 06:03:15;;;;;;;;;;;;;;;;;;6192412;28;19968;-77
2023/08/17 06:06:15;;;;;;;;;;;;;;;;;;6206525;28;19914;-71
2023/08/17 06:09:15;;;;;;;;;;;;;;;;;;6216944;28;19916;-71
2023/08/17 06:12:17;;;;;;;;;;;;;;;;;;6197286;28;19937;-70
2023/08/17 06:15:17;;;;;;;;;;;;;;;;;;6203818;28;19917;-70
2023/08/17 06:18:20;;;;;;;;;;;;;;;;;;6177926;28;19910;-71
2023/08/17 06:21:20;;;;;;;;;;;;;;;;;;6197231;28;19909;-70
2023/08/17 06:24:20;;;;;;;;;;;;;;;;;;6208660;28;19920;-75
2023/08/17 06:27:20;;;;;;;;;;;;;;;;;;6188267;28;19917;-75
2023/08/17 06:30:20;;;;;;;;;;;;;;;;;;6198948;28;19955;-76
2023/08/17 06:33:20;;;;;;;;;;;;;;;;;;6198144;28;20357;-74
2023/08/17 06:36:21;;;;;;;;;;;;;;;;;;6211963;28;19920;-75
2023/08/17 06:39:21;;;;;;;;;;;;;;;;;;6207419;28;20372;-74
2023/08/17 06:42:21;;;;;;;;;;;;;;;;;;6219413;28;20367;-74
2023/08/17 06:45:22;;;;;;;;;;;;;;;;;;6220607;28;19905;-74
2023/08/17 06:48:22;;;;;;;;;;;;;;;;;;6198180;28;19909;-74
2023/08/17 06:51:22;;;;;;;;;;;;;;;;;;6218889;28;19913;-74
2023/08/17 06:54:22;;;;;;;;;;;;;;;;;;6214546;28;19914;-72
2023/08/17 06:57:22;;;;;;;;;;;;;;;;;;6219595;28;19914;-74
2023/08/17 07:00:22;;;;;;;;;;;;;;;;;;6205529;28;19971;-74
2023/08/17 07:03:23;;;;;;;;;;;;;;;;;;6204759;28;19952;-76
2023/08/17 07:06:23;;;;;;;;;;;;;;;;;;6200647;28;19906;-76
2023/08/17 07:09:23;;;;;;;;;;;;;;;;;;6199019;28;19910;-75
2023/08/17 07:12:24;;;;;;;;;;;;;;;;;;6183765;28;19992;-75
2023/08/17 07:15:24;;;;;;;;;;;;;;;;;;6196272;28;20368;-75
2023/08/17 07:18:24;;;;;;;;;;;;;;;;;;6196435;28;19914;-75
2023/08/17 07:21:24;;;;;;;;;;;;;;;;;;6197330;28;20425;-76
2023/08/17 07:24:24;;;;;;;;;;;;;;;;;;6205379;28;19983;-75
2023/08/17 07:27:24;;;;;;;;;;;;;;;;;;6190177;28;20345;-74
2023/08/17 07:30:24;;;;;;;;;;;;;;;;;;6191008;28;19925;-74
2023/08/17 07:33:25;;;;;;;;;;;;;;;;;;6196737;28;19917;-74
2023/08/17 07:36:25;;;;;;;;;;;;;;;;;;6183230;28;20004;-75
2023/08/17 07:39:25;;;;;;;;;;;;;;;;;;6209568;28;19921;-75
2023/08/17 07:42:25;;;;;;;;;;;;;;;;;;6211364;28;19910;-75
2023/08/17 07:45:25;;;;;;;;;;;;;;;;;;6195844;28;20415;-74
2023/08/17 07:48:25;;;;;;;;;;;;;;;;;;6198655;28;19910;-74
2023/08/17 07:51:25;;;;;;;;;;;;;;;;;;6196187;28;20016;-74
2023/08/17 07:54:25;;;;;;;;;;;;;;;;;;6195030;28;19918;-75
2023/08/17 07:57:25;;;;;;;;;;;;;;;;;;6220117;28;19914;-75
2023/08/17 08:00:26;;;;;;;;;;;;;;;;;;6221649;28;19917;-79
2023/08/17 08:03:26;;;;;;;;;;;;;;;;;;6214871;28;19959;-74
2023/08/17 08:06:26;;;;;;;;;;;;;;;;;;6209429;28;19916;-74
2023/08/17 08:09:26;;;;;;;;;;;;;;;;;;6214341;28;20310;-74
2023/08/17 08:12:26;;;;;;;;;;;;;;;;;;6207143;28;19906;-74
2023/08/17 08:15:26;;;;;;;;;;;;;;;;;;6198703;28;19917;-75
2023/08/17 08:18:26;;;;;;;;;;;;;;;;;;6196020;28;20411;-74
2023/08/17 08:21:28;;;;;;;;;;;;;;;;;;6202232;28;19914;-75
2023/08/17 08:24:33;;;;;;;;;;;;;;;;;;6195743;28;19929;-75
2023/08/17 08:27:33;;;;;;;;;;;;;;;;;;6199520;28;20010;-75
2023/08/17 08:30:33;;;;;;;;;;;;;;;;;;6210368;28;19920;-74
2023/08/17 08:33:33;;;;;;;;;;;;;;;;;;6211722;28;19921;-75
2023/08/17 08:36:34;;;;;;;;;;;;;;;;;;6207535;28;20341;-74
2023/08/17 08:39:34;;;;;;;;;;;;;;;;;;6213052;28;19939;-74
2023/08/17 08:42:34;;;;;;;;;;;;;;;;;;6222863;28;19992;-79
2023/08/17 08:45:34;;;;;;;;;;;;;;;;;;6222705;28;19921;-74
2023/08/17 08:48:34;;;;;;;;;;;;;;;;;;6204103;28;19916;-75
2023/08/17 08:51:34;;;;;;;;;;;;;;;;;;6221451;28;19917;-74
2023/08/17 08:54:35;;;;;;;;;;;;;;;;;;6201370;28;19987;-75
2023/08/17 08:57:35;;;;;;;;;;;;;;;;;;6215837;28;20026;-75
2023/08/17 09:00:35;;;;;;;;;;;;;;;;;;6198070;28;20007;-76
2023/08/17 09:03:35;;;;;;;;;;;;;;;;;;6191856;28;19932;-75
2023/08/17 09:06:35;;;;;;;;;;;;;;;;;;6195953;28;19909;-75
2023/08/17 09:09:36;;;;;;;;;;;;;;;;;;5887548;28;9999733;-74
2023/08/17 09:12:36;;;;;;;;;;;;;;;;;;6184748;28;20475;-74
2023/08/17 09:15:36;;;;;;;;;;;;;;;;;;6195770;28;19979;-74
2023/08/17 09:18:37;;;;;;;;;;;;;;;;;;6198183;28;19932;-74
2023/08/17 09:21:37;;;;;;;;;;;;;;;;;;6194081;28;19953;-75
2023/08/17 09:24:37;;;;;;;;;;;;;;;;;;6193201;28;19910;-75
2023/08/17 09:27:37;;;;;;;;;;;;;;;;;;6193565;28;19914;-75
2023/08/17 09:30:37;;;;;;;;;;;;;;;;;;6195944;28;19905;-75
2023/08/17 09:33:37;;;;;;;;;;;;;;;;;;6181739;28;20365;-74
2023/08/17 09:36:38;;;;;;;;;;;;;;;;;;6184053;28;20335;-75
2023/08/17 09:39:38;;;;;;;;;;;;;;;;;;6193708;28;20303;-74
2023/08/17 09:42:38;;;;;;;;;;;;;;;;;;6192213;28;19925;-74
2023/08/17 09:45:38;;;;;;;;;;;;;;;;;;6195819;28;20000;-74
2023/08/17 09:48:39;;;;;;;;;;;;;;;;;;6196458;28;20009;-74
2023/08/17 09:51:39;;;;;;;;;;;;;;;;;;6195533;28;20591;-73
2023/08/17 09:54:39;;;;;;;;;;;;;;;;;;6195679;28;19981;-74
2023/08/17 09:57:39;;;;;;;;;;;;;;;;;;6196044;28;19980;-74
2023/08/17 10:00:39;;;;;;;;;;;;;;;;;;6197990;28;19917;-74
2023/08/17 10:03:40;;;;;;;;;;;;;;;;;;6217732;28;19913;-75
2023/08/17 10:06:40;;;;;;;;;;;;;;;;;;6200218;28;19933;-74
2023/08/17 10:09:40;;;;;;;;;;;;;;;;;;6200665;28;19910;-75
2023/08/17 10:12:40;;;;;;;;;;;;;;;;;;6214875;28;20438;-76
2023/08/17 10:15:40;;;;;;;;;;;;;;;;;;6196546;28;19914;-74
2023/08/17 10:18:40;;;;;;;;;;;;;;;;;;6203069;28;19913;-75
2023/08/17 10:21:41;;;;;;;;;;;;;;;;;;6209573;28;19913;-75
2023/08/17 10:24:41;;;;;;;;;;;;;;;;;;6193620;28;19914;-77
2023/08/17 10:27:41;;;;;;;;;;;;;;;;;;6205054;28;19912;-75
2023/08/17 10:30:41;;;;;;;;;;;;;;;;;;6199905;28;19909;-74
2023/08/17 10:33:44;;;;;;;;;;;;;;;;;;6188738;28;19961;-76
2023/08/17 10:36:44;;;;;;;;;;;;;;;;;;6198625;28;20032;-76
2023/08/17 10:39:44;;;;;;;;;;;;;;;;;;6201257;28;19917;-76
2023/08/17 10:42:46;;;;;;;;;;;;;;;;;;6219283;28;19909;-75
2023/08/17 10:45:50;;;;;;;;;;;;;;;;;;6196536;28;20243;-74
2023/08/17 10:48:50;;;;;;;;;;;;;;;;;;6194630;28;19917;-75
2023/08/17 10:51:50;;;;;;;;;;;;;;;;;;6187828;28;19960;-75
2023/08/17 10:54:51;;;;;;;;;;;;;;;;;;6193304;28;20395;-75
2023/08/17 10:57:51;;;;;;;;;;;;;;;;;;6174495;28;19918;-76
2023/08/17 11:00:51;;;;;;;;;;;;;;;;;;6210243;28;19913;-76
2023/08/17 11:03:51;;;;;;;;;;;;;;;;;;6219712;28;19906;-75
2023/08/17 11:06:51;;;;;;;;;;;;;;;;;;6194360;28;20067;-75
2023/08/17 11:09:52;;;;;;;;;;;;;;;;;;6193902;28;20360;-75
2023/08/17 11:12:52;;;;;;;;;;;;;;;;;;6205440;28;20363;-75
2023/08/17 11:15:52;;;;;;;;;;;;;;;;;;6212016;28;19917;-75
2023/08/17 11:18:52;;;;;;;;;;;;;;;;;;6207786;28;19910;-76
2023/08/17 11:21:52;;;;;;;;;;;;;;;;;;6198721;28;20371;-79
2023/08/17 11:24:54;;;;;;;;;;;;;;;;;;6194179;28;19910;-74
2023/08/17 11:27:54;;;;;;;;;;;;;;;;;;6188464;28;20683;-74
2023/08/17 11:30:54;;;;;;;;;;;;;;;;;;6206135;28;19991;-74
2023/08/17 11:33:54;;;;;;;;;;;;;;;;;;6200673;28;20334;-75
2023/08/17 11:36:55;;;;;;;;;;;;;;;;;;6203525;28;20356;-74
2023/08/17 11:39:55;;;;;;;;;;;;;;;;;;6188457;28;20013;-74
2023/08/17 11:42:55;;;;;;;;;;;;;;;;;;6200393;28;19985;-74
2023/08/17 11:45:55;;;;;;;;;;;;;;;;;;6198930;28;19914;-75
2023/08/17 11:48:55;;;;;;;;;;;;;;;;;;6195583;28;20454;-76
2023/08/17 11:51:55;;;;;;;;;;;;;;;;;;6199993;28;19925;-75
2023/08/17 11:54:55;;;;;;;;;;;;;;;;;;6199103;28;19976;-75
2023/08/17 11:57:55;;;;;;;;;;;;;;;;;;6174668;28;19926;-75
2023/08/17 12:00:56;;;;;;;;;;;;;;;;;;6204308;28;19920;-76
2023/08/17 12:03:56;;;;;;;;;;;;;;;;;;6202451;28;20251;-76
2023/08/17 12:06:56;;;;;;;;;;;;;;;;;;6183259;28;20367;-75
2023/08/17 12:09:56;;;;;;;;;;;;;;;;;;6205240;28;19909;-74
2023/08/17 12:12:57;;;;;;;;;;;;;;;;;;6214801;28;19918;-74
2023/08/17 12:15:58;;;;;;;;;;;;;;;;;;6220579;28;19920;-74
2023/08/17 12:18:58;;;;;;;;;;;;;;;;;;6218599;28;20003;-74
2023/08/17 12:21:59;;;;;;;;;;;;;;;;;;6213475;28;19913;-75
2023/08/17 12:24:59;;;;;;;;;;;;;;;;;;6222603;28;19960;-74
2023/08/17 12:28:00;;;;;;;;;;;;;;;;;;6200519;28;19913;-75
2023/08/17 12:31:00;;;;;;;;;;;;;;;;;;6198487;28;20313;-75
2023/08/17 12:34:00;;;;;;;;;;;;;;;;;;6188948;28;19925;-74
2023/08/17 12:37:00;;;;;;;;;;;;;;;;;;6208919;28;19909;-75
2023/08/17 12:40:00;;;;;;;;;;;;;;;;;;6194970;28;19952;-74
2023/08/17 12:43:00;;;;;;;;;;;;;;;;;;6198813;28;19906;-74
2023/08/17 12:46:01;;;;;;;;;;;;;;;;;;6196396;28;20372;-76
2023/08/17 12:49:01;;;;;;;;;;;;;;;;;;6179698;28;19917;-74
2023/08/17 12:52:01;;;;;;;;;;;;;;;;;;6197796;28;19914;-77
2023/08/17 12:55:01;;;;;;;;;;;;;;;;;;6190317;28;19921;-78
2023/08/17 12:58:01;;;;;;;;;;;;;;;;;;6190806;28;19940;-76
2023/08/17 13:01:01;;;;;;;;;;;;;;;;;;6174817;28;19909;-77
2023/08/17 13:04:01;;;;;;;;;;;;;;;;;;6186282;28;19917;-74
2023/08/17 13:07:02;;;;;;;;;;;;;;;;;;6213760;28;19956;-75
2023/08/17 13:10:02;;;;;;;;;;;;;;;;;;6219167;28;19919;-75
2023/08/17 13:13:02;;;;;;;;;;;;;;;;;;6200893;28;19913;-74
2023/08/17 13:16:02;;;;;;;;;;;;;;;;;;6208868;28;20092;-74
2023/08/17 13:19:02;;;;;;;;;;;;;;;;;;6198761;28;19975;-76
2023/08/17 13:22:02;;;;;;;;;;;;;;;;;;6196275;28;19918;-74
2023/08/17 13:25:02;;;;;;;;;;;;;;;;;;6204946;28;20454;-74
2023/08/17 13:28:03;;;;;;;;;;;;;;;;;;6218202;28;19920;-74
2023/08/17 13:31:03;;;;;;;;;;;;;;;;;;6219245;28;20316;-74
2023/08/17 13:34:03;;;;;;;;;;;;;;;;;;6194935;28;20328;-74
2023/08/17 13:37:03;;;;;;;;;;;;;;;;;;6209095;28;19910;-68
2023/08/17 13:40:03;;;;;;;;;;;;;;;;;;6206169;28;19910;-69
2023/08/17 13:43:04;;;;;;;;;;;;;;;;;;6195738;28;19948;-68
2023/08/17 13:46:05;;;;;;;;;;;;;;;;;;6209622;28;19924;-68
2023/08/17 13:49:05;;;;;;;;;;;;;;;;;;6201170;28;20313;-68
2023/08/17 13:52:06;;;;;;;;;;;;;;;;;;6197395;28;19917;-69
2023/08/17 13:55:06;;;;;;;;;;;;;;;;;;5849470;28;10000387;-69
2023/08/17 13:58:09;;;;;;;;;;;;;;;;;;6191836;28;19926;-70
2023/08/17 14:01:11;;;;;;;;;;;;;;;;;;6194237;28;19921;-74
2023/08/17 14:04:12;;;;;;;;;;;;;;;;;;6176810;28;19929;-70
2023/08/17 14:07:12;;;;;;;;;;;;;;;;;;6175752;28;19945;-70
2023/08/17 14:10:12;;;;;;;;;;;;;;;;;;6216930;28;19905;-68
2023/08/17 14:13:12;;;;;;;;;;;;;;;;;;6210577;28;19921;-68
2023/08/17 14:16:12;;;;;;;;;;;;;;;;;;6221155;28;19929;-68
2023/08/17 14:19:12;;;;;;;;;;;;;;;;;;6222196;28;20387;-68
2023/08/17 14:22:12;;;;;;;;;;;;;;;;;;6222246;28;20391;-68
2023/08/17 14:25:13;;;;;;;;;;;;;;;;;;6201812;28;19975;-68
2023/08/17 14:28:13;;;;;;;;;;;;;;;;;;6180000;28;20344;-68
2023/08/17 14:31:17;;;;;;;;;;;;;;;;;;6218010;28;19910;-68
2023/08/17 14:34:17;;;;;;;;;;;;;;;;;;6176368;28;19917;-67
2023/08/17 14:37:17;;;;;;;;;;;;;;;;;;6173546;28;19905;-67
2023/08/17 14:40:18;;;;;;;;;;;;;;;;;;6173175;28;20002;-69
2023/08/17 14:43:18;;;;;;;;;;;;;;;;;;6206205;28;19917;-70
2023/08/17 14:46:18;;;;;;;;;;;;;;;;;;6219945;28;19906;-75
2023/08/17 14:49:18;;;;;;;;;;;;;;;;;;6221311;28;19905;-76
2023/08/17 14:52:20;;;;;;;;;;;;;;;;;;6222118;28;19906;-76
2023/08/17 14:55:20;;;;;;;;;;;;;;;;;;6221153;28;19914;-74
2023/08/17 14:58:20;;;;;;;;;;;;;;;;;;6186060;28;19941;-75
2023/08/17 15:01:20;;;;;;;;;;;;;;;;;;6177407;28;20058;-74
2023/08/17 15:04:20;;;;;;;;;;;;;;;;;;6217331;28;20462;-75
2023/08/17 15:07:20;;;;;;;;;;;;;;;;;;6197308;28;19917;-75
2023/08/17 15:10:20;;;;;;;;;;;;;;;;;;6194073;28;19910;-74
2023/08/17 15:13:22;;;;;;;;;;;;;;;;;;6194387;28;19914;-74
2023/08/17 15:16:27;;;;;;;;;;;;;;;;;;6201939;28;20342;-75
2023/08/17 15:19:27;;;;;;;;;;;;;;;;;;6218606;28;20350;-76
2023/08/17 15:22:27;;;;;;;;;;;;;;;;;;6218198;28;19913;-75
2023/08/17 15:25:27;;;;;;;;;;;;;;;;;;6215822;28;19990;-76
2023/08/17 15:28:27;;;;;;;;;;;;;;;;;;6200631;28;19928;-76
2023/08/17 15:31:28;;;;;;;;;;;;;;;;;;6208918;28;20342;-76
2023/08/17 15:34:28;;;;;;;;;;;;;;;;;;6194173;28;19929;-76
2023/08/17 15:37:28;;;;;;;;;;;;;;;;;;6197715;28;19912;-75
2023/08/17 15:40:28;;;;;;;;;;;;;;;;;;6176317;28;19913;-74
2023/08/17 15:43:29;;;;;;;;;;;;;;;;;;6193064;28;19914;-75
2023/08/17 15:46:29;;;;;;;;;;;;;;;;;;6209752;28;19952;-75
2023/08/17 15:49:29;;;;;;;;;;;;;;;;;;6205584;28;19935;-75
2023/08/17 15:52:29;;;;;;;;;;;;;;;;;;6209371;28;19914;-76
2023/08/17 15:55:29;;;;;;;;;;;;;;;;;;6200276;28;19979;-76
2023/08/17 15:58:30;;;;;;;;;;;;;;;;;;6212227;28;20406;-82
2023/08/17 16:01:30;;;;;;;;;;;;;;;;;;6192664;28;19917;-76
2023/08/17 16:04:30;;;;;;;;;;;;;;;;;;6211254;28;20005;-76
2023/08/17 16:07:30;;;;;;;;;;;;;;;;;;6194605;28;19909;-75
2023/08/17 16:10:32;;;;;;;;;;;;;;;;;;6193855;28;19917;-74
2023/08/17 16:13:32;;;;;;;;;;;;;;;;;;6193890;28;19972;-75
2023/08/17 16:16:33;;;;;;;;;;;;;;;;;;6192271;28;19914;-75
2023/08/17 16:19:33;;;;;;;;;;;;;;;;;;6218368;28;19909;-76
2023/08/17 16:22:33;;;;;;;;;;;;;;;;;;6188230;28;19928;-75
2023/08/17 16:25:34;;;;;;;;;;;;;;;;;;6208868;28;19913;-75
2023/08/17 16:28:34;;;;;;;;;;;;;;;;;;6223012;28;20004;-74
2023/08/17 16:31:34;;;;;;;;;;;;;;;;;;6221415;28;19906;-76
2023/08/17 16:34:35;;;;;;;;;;;;;;;;;;6199245;28;19918;-74
2023/08/17 16:37:35;;;;;;;;;;;;;;;;;;6189287;28;20399;-75
2023/08/17 16:40:35;;;;;;;;;;;;;;;;;;6196956;28;20028;-80
2023/08/17 16:43:35;;;;;;;;;;;;;;;;;;6161503;28;19969;-76
2023/08/17 16:46:36;;;;;;;;;;;;;;;;;;6153882;28;19917;-76
2023/08/17 16:49:37;;;;;;;;;;;;;;;;;;6152451;28;19921;-75
2023/08/17 16:52:37;;;;;;;;;;;;;;;;;;6152232;28;20359;-75
2023/08/17 16:55:37;;;;;;;;;;;;;;;;;;6155217;28;20334;-76
2023/08/17 16:58:37;;;;;;;;;;;;;;;;;;6157643;28;19981;-69
2023/08/17 17:01:37;;;;;;;;;;;;;;;;;;6153938;28;19953;-68
2023/08/17 17:04:37;;;;;;;;;;;;;;;;;;6154846;28;19964;-68
2023/08/17 17:07:37;;;;;;;;;;;;;;;;;;6154838;28;19924;-67
2023/08/17 17:10:38;;;;;;;;;;;;;;;;;;6155130;28;20129;-67
2023/08/17 17:13:38;;;;;;;;;;;;;;;;;;6154481;28;20031;-67
2023/08/17 17:16:38;;;;;;;;;;;;;;;;;;6151227;28;20410;-68
2023/08/17 17:19:38;;;;;;;;;;;;;;;;;;6153267;28;20266;-68
2023/08/17 17:22:38;;;;;;;;;;;;;;;;;;6155528;28;20459;-71
2023/08/17 17:25:39;;;;;;;;;;;;;;;;;;6152582;28;19918;-67
2023/08/17 17:28:39;;;;;;;;;;;;;;;;;;6156107;28;20219;-66
2023/08/17 17:31:39;;;;;;;;;;;;;;;;;;6151653;28;20581;-66
2023/08/17 17:34:39;;;;;;;;;;;;;;;;;;6150318;28;20585;-68
2023/08/17 17:37:39;;;;;;;;;;;;;;;;;;6152307;28;20013;-68
2023/08/17 17:40:39;;;;;;;;;;;;;;;;;;6152130;28;19989;-68
2023/08/17 17:43:39;;;;;;;;;;;;;;;;;;6154972;28;19940;-68
2023/08/17 17:46:40;;;;;;;;;;;;;;;;;;6150925;28;20308;-70
2023/08/17 17:49:40;;;;;;;;;;;;;;;;;;6154868;28;19928;-68
2023/08/17 17:52:40;;;;;;;;;;;;;;;;;;6154429;28;19917;-68
2023/08/17 17:55:40;;;;;;;;;;;;;;;;;;6153219;28;19952;-69
2023/08/17 17:58:40;;;;;;;;;;;;;;;;;;6151564;28;19930;-69
2023/08/17 18:01:40;;;;;;;;;;;;;;;;;;6152298;28;19929;-68
2023/08/17 18:04:40;;;;;;;;;;;;;;;;;;6171495;28;19914;-68
2023/08/17 18:07:41;;;;;;;;;;;;;;;;;;6180967;28;19917;-69
2023/08/17 18:10:41;;;;;;;;;;;;;;;;;;6179098;28;19963;-69
2023/08/17 18:13:41;;;;;;;;;;;;;;;;;;6181113;28;19964;-69
2023/08/17 18:16:41;;;;;;;;;;;;;;;;;;6193038;28;19933;-68
2023/08/17 18:19:41;;;;;;;;;;;;;;;;;;6196208;28;19913;-68
2023/08/17 18:22:41;;;;;;;;;;;;;;;;;;6198661;28;19996;-70
2023/08/17 18:25:45;;;;;;;;;;;;;;;;;;6195423;28;19905;-69
2023/08/17 18:28:45;;;;;;;;;;;;;;;;;;6193701;28;19920;-70
2023/08/17 18:31:45;;;;;;;;;;;;;;;;;;6183946;28;20673;-68
2023/08/17 18:34:45;;;;;;;;;;;;;;;;;;6183252;28;19918;-68
2023/08/17 18:37:45;;;;;;;;;;;;;;;;;;6187032;28;19918;-70
2023/08/17 18:40:45;;;;;;;;;;;;;;;;;;6190213;28;19914;-69
2023/08/17 18:43:46;;;;;;;;;;;;;;;;;;6192285;28;19950;-68
2023/08/17 18:46:46;;;;;;;;;;;;;;;;;;6180683;28;19956;-70
2023/08/17 18:49:46;;;;;;;;;;;;;;;;;;6180519;28;19984;-70
2023/08/17 18:52:46;;;;;;;;;;;;;;;;;;6182364;28;20382;-70
2023/08/17 18:55:46;;;;;;;;;;;;;;;;;;6176311;28;20401;-69
2023/08/17 18:58:46;;;;;;;;;;;;;;;;;;6179086;28;19977;-69
2023/08/17 19:01:46;;;;;;;;;;;;;;;;;;6178496;28;19956;-69
2023/08/17 19:04:46;;;;;;;;;;;;;;;;;;6181449;28;22083;-68
2023/08/17 19:07:47;;;;;;;;;;;;;;;;;;6184418;28;20356;-69
2023/08/17 19:10:47;;;;;;;;;;;;;;;;;;6176739;28;19913;-69
2023/08/17 19:13:47;;;;;;;;;;;;;;;;;;6179695;28;19917;-68
2023/08/17 19:16:47;;;;;;;;;;;;;;;;;;6178337;28;19933;-67
2023/08/17 19:19:47;;;;;;;;;;;;;;;;;;6184151;28;19917;-69
2023/08/17 19:22:47;;;;;;;;;;;;;;;;;;6177823;28;19918;-67
2023/08/17 19:25:47;;;;;;;;;;;;;;;;;;6177993;28;20012;-69
2023/08/17 19:28:47;;;;;;;;;;;;;;;;;;6177855;28;20028;-67
2023/08/17 19:31:47;;;;;;;;;;;;;;;;;;6178232;28;19917;-67
2023/08/17 19:34:48;;;;;;;;;;;;;;;;;;6183036;28;19966;-67
2023/08/17 19:37:49;;;;;;;;;;;;;;;;;;6179562;28;20384;-69
2023/08/17 19:40:49;;;;;;;;;;;;;;;;;;6182152;28;19918;-74
2023/08/17 19:43:49;;;;;;;;;;;;;;;;;;6178704;28;19992;-68
2023/08/17 19:46:49;;;;;;;;;;;;;;;;;;6179674;28;19914;-68
2023/08/17 19:49:50;;;;;;;;;;;;;;;;;;6180898;28;19910;-68
2023/08/17 19:52:50;;;;;;;;;;;;;;;;;;6177892;28;20360;-68
2023/08/17 19:55:50;;;;;;;;;;;;;;;;;;6177670;28;19918;-68
2023/08/17 19:58:50;;;;;;;;;;;;;;;;;;6184690;28;20039;-69
2023/08/17 20:01:50;;;;;;;;;;;;;;;;;;6184062;28;20042;-76
2023/08/17 20:04:50;;;;;;;;;;;;;;;;;;6182388;28;19921;-70
2023/08/17 20:07:50;;;;;;;;;;;;;;;;;;6183648;28;19918;-69
2023/08/17 20:10:51;;;;;;;;;;;;;;;;;;6187969;28;19914;-72
2023/08/17 20:13:51;;;;;;;;;;;;;;;;;;6187394;28;19953;-71
2023/08/17 20:16:51;;;;;;;;;;;;;;;;;;6189876;28;19956;-68
2023/08/17 20:19:51;;;;;;;;;;;;;;;;;;6191414;28;19920;-72
2023/08/17 20:22:51;;;;;;;;;;;;;;;;;;6189227;28;19945;-67
2023/08/17 20:25:51;;;;;;;;;;;;;;;;;;6171414;28;20024;-70
2023/08/17 20:28:51;;;;;;;;;;;;;;;;;;6185656;28;19922;-70
2023/08/17 20:31:52;;;;;;;;;;;;;;;;;;6188886;28;19918;-67